createdAt,value
2022-11-27T00:00:09.910Z,63.30
2022-11-27T00:05:14.330Z,63.30
2022-11-27T00:10:16.344Z,63.04
2022-11-27T00:15:18.883Z,62.89
2022-11-27T00:20:20.748Z,63.02
2022-11-27T00:25:22.639Z,62.51
2022-11-27T00:30:24.472Z,62.27
2022-11-27T00:35:26.393Z,62.31
2022-11-27T00:40:28.195Z,62.37
2022-11-27T00:45:30.016Z,62.17
2022-11-27T00:50:32.721Z,62.21
2022-11-27T00:55:34.526Z,61.99
2022-11-27T01:00:36.350Z,61.73
2022-11-27T01:05:38.293Z,61.43
2022-11-27T01:10:40.143Z,61.76
2022-11-27T01:15:41.967Z,61.43
2022-11-27T01:20:43.800Z,62.03
2022-11-27T01:25:45.649Z,62.42
2022-11-27T01:30:47.840Z,62.49
2022-11-27T01:36:04.982Z,61.90
2022-11-27T01:41:09.363Z,61.88
2022-11-27T01:46:32.501Z,61.35
2022-11-27T01:51:37.293Z,61.83
2022-11-27T01:56:41.972Z,61.61
2022-11-27T02:01:44.014Z,61.42
2022-11-27T02:06:47.289Z,61.26
2022-11-27T02:12:14.802Z,61.33
2022-11-27T02:17:28.410Z,61.81
2022-11-27T02:22:57.380Z,62.31
2022-11-27T02:28:38.992Z,61.69
2022-11-27T02:33:45.845Z,60.98
2022-11-27T02:38:54.099Z,60.94
2022-11-27T02:43:57.402Z,61.42
2022-11-27T02:49:03.938Z,61.31
2022-11-27T02:54:10.099Z,61.19
2022-11-27T02:59:14.848Z,60.85
2022-11-27T03:04:22.409Z,60.71
2022-11-27T03:09:39.057Z,60.50
2022-11-27T03:14:42.305Z,60.38
2022-11-27T03:19:56.327Z,60.81
2022-11-27T03:24:59.127Z,61.06
2022-11-27T03:30:02.810Z,60.71
2022-11-27T03:35:08.302Z,60.57
2022-11-27T03:40:10.931Z,60.62
2022-11-27T03:45:22.254Z,60.54
2022-11-27T03:50:39.416Z,60.93
2022-11-27T03:56:10.046Z,60.68
2022-11-27T04:01:17.225Z,60.67
2022-11-27T04:06:19.118Z,61.25
2022-11-27T04:11:20.893Z,61.36
2022-11-27T04:16:23.098Z,61.07
2022-11-27T04:21:25.147Z,60.95
2022-11-27T04:26:27.008Z,60.64
2022-11-27T04:31:28.830Z,60.70
2022-11-27T04:36:34.703Z,60.65
2022-11-27T04:41:39.737Z,60.68
2022-11-27T04:46:41.555Z,60.47
2022-11-27T04:51:43.601Z,61.12
2022-11-27T04:56:45.408Z,61.11
2022-11-27T05:01:47.379Z,61.07
2022-11-27T05:06:50.096Z,61.17
2022-11-27T05:11:51.926Z,60.82
2022-11-27T05:16:57.195Z,61.51
2022-11-27T05:21:59.517Z,61.09
2022-11-27T05:27:01.313Z,60.97
2022-11-27T05:32:03.251Z,60.99
2022-11-27T05:37:05.090Z,61.55
2022-11-27T05:42:06.901Z,61.12
2022-11-27T05:47:08.785Z,60.96
2022-11-27T05:52:10.643Z,60.95
2022-11-27T05:57:12.451Z,60.73
2022-11-27T06:02:20.740Z,61.33
2022-11-27T06:07:24.608Z,61.70
2022-11-27T06:12:26.734Z,61.84
2022-11-27T06:17:28.578Z,61.99
2022-11-27T06:22:31.419Z,61.48
2022-11-27T06:27:36.851Z,61.47
2022-11-27T06:32:38.745Z,61.51
2022-11-27T06:37:40.559Z,61.18
2022-11-27T06:42:42.338Z,60.81
2022-11-27T06:47:44.162Z,61.28
2022-11-27T06:52:45.958Z,61.75
2022-11-27T06:57:51.377Z,61.62
2022-11-27T07:02:55.066Z,61.69
2022-11-27T07:07:58.320Z,61.38
2022-11-27T07:13:00.159Z,61.62
2022-11-27T07:18:02.488Z,61.28
2022-11-27T07:23:04.293Z,61.06
2022-11-27T07:28:06.094Z,61.66
2022-11-27T07:33:07.964Z,61.37
2022-11-27T07:38:09.767Z,61.40
2022-11-27T07:43:11.569Z,61.13
2022-11-27T07:48:13.365Z,61.15
2022-11-27T07:53:15.193Z,61.08
2022-11-27T07:58:17.294Z,61.32
2022-11-27T08:03:19.087Z,61.09
2022-11-27T08:08:20.983Z,60.88
2022-11-27T08:13:22.796Z,60.65
2022-11-27T08:18:24.955Z,60.52
2022-11-27T08:23:26.884Z,60.14
2022-11-27T08:28:28.786Z,60.22
2022-11-27T08:33:31.403Z,59.49
2022-11-27T08:38:33.269Z,59.44
2022-11-27T08:43:35.565Z,59.54
2022-11-27T08:48:37.572Z,59.48
2022-11-27T08:53:40.127Z,58.89
2022-11-27T08:58:42.205Z,58.49
2022-11-27T09:03:44.066Z,58.18
2022-11-27T09:08:45.968Z,58.37
2022-11-27T09:13:48.219Z,57.36
2022-11-27T09:18:52.539Z,57.53
2022-11-27T09:23:55.730Z,57.68
2022-11-27T09:28:58.990Z,57.26
2022-11-27T09:34:00.868Z,57.46
2022-11-27T09:39:03.760Z,57.04
2022-11-27T09:44:29.931Z,56.27
2022-11-27T09:49:58.591Z,56.21
2022-11-27T09:55:13.587Z,56.55
2022-11-27T10:00:18.509Z,55.75
2022-11-27T10:05:26.657Z,55.40
2022-11-27T10:11:05.872Z,56.04
2022-11-27T10:16:13.843Z,55.77
2022-11-27T10:21:24.664Z,55.78
2022-11-27T10:26:36.629Z,56.06
2022-11-27T10:31:50.415Z,55.32
2022-11-27T10:36:56.292Z,55.37
2022-11-27T10:42:11.253Z,55.89
2022-11-27T10:47:15.865Z,55.50
2022-11-27T10:52:19.989Z,55.60
2022-11-27T10:57:32.371Z,55.66
2022-11-27T11:02:38.635Z,55.45
2022-11-27T11:07:40.645Z,55.80
2022-11-27T11:12:42.510Z,56.15
2022-11-27T11:17:44.359Z,55.81
2022-11-27T11:22:47.995Z,55.54
2022-11-27T11:27:51.552Z,55.95
2022-11-27T11:33:03.145Z,55.97
2022-11-27T11:38:14.791Z,56.69
2022-11-27T11:43:32.482Z,56.23
2022-11-27T11:48:35.973Z,56.09
2022-11-27T11:53:44.472Z,56.15
2022-11-27T11:58:46.220Z,56.44
2022-11-27T12:04:00.223Z,56.57
2022-11-27T12:09:19.236Z,56.16
2022-11-27T12:14:27.139Z,56.02
2022-11-27T12:19:50.753Z,56.10
2022-11-27T12:25:22.273Z,54.13
2022-11-27T12:30:30.086Z,49.90
2022-11-27T12:35:52.138Z,46.79
2022-11-27T12:41:10.406Z,43.04
2022-11-27T12:46:37.679Z,40.96
2022-11-27T12:51:56.853Z,38.47
2022-11-27T12:57:07.452Z,38.16
2022-11-27T13:02:09.250Z,38.32
2022-11-27T13:07:19.986Z,37.32
2022-11-27T13:12:31.559Z,36.14
2022-11-27T13:17:43.137Z,35.68
2022-11-27T13:22:46.865Z,36.51
2022-11-27T13:27:51.907Z,35.90
2022-11-27T13:32:56.464Z,36.21
2022-11-27T13:38:08.887Z,35.69
2022-11-27T13:43:29.079Z,35.10
2022-11-27T13:48:37.692Z,35.03
2022-11-27T13:53:42.119Z,34.62
2022-11-27T13:58:43.994Z,35.75
2022-11-27T14:03:46.022Z,38.00
2022-11-27T14:09:07.346Z,39.83
2022-11-27T14:14:17.722Z,41.02
2022-11-27T14:19:44.374Z,42.18
2022-11-27T14:24:56.010Z,42.58
2022-11-27T14:29:57.820Z,43.11
2022-11-27T14:34:59.621Z,43.46
2022-11-27T14:40:13.724Z,43.73
2022-11-27T14:45:19.061Z,44.20
2022-11-27T14:50:22.072Z,44.69
2022-11-27T14:55:24.443Z,45.08
2022-11-27T15:00:27.376Z,44.83
2022-11-27T15:05:29.955Z,44.91
2022-11-27T15:10:40.599Z,45.36
2022-11-27T15:15:45.034Z,45.53
2022-11-27T15:20:47.482Z,45.89
2022-11-27T15:26:03.856Z,46.34
2022-11-27T15:31:25.555Z,46.31
2022-11-27T15:36:33.741Z,45.89
2022-11-27T15:41:40.818Z,46.54
2022-11-27T15:46:45.575Z,46.46
2022-11-27T15:51:47.442Z,46.85
2022-11-27T15:56:49.648Z,47.38
2022-11-27T16:01:51.589Z,47.24
2022-11-27T16:06:53.665Z,47.15
2022-11-27T16:11:55.646Z,47.23
2022-11-27T16:16:57.529Z,47.34
2022-11-27T16:21:59.358Z,47.34
2022-11-27T16:27:01.190Z,47.92
2022-11-27T16:32:03.430Z,47.31
2022-11-27T16:37:05.325Z,48.34
2022-11-27T16:42:07.510Z,48.04
2022-11-27T16:47:10.543Z,48.03
2022-11-27T16:52:12.646Z,48.43
2022-11-27T16:57:14.527Z,48.39
2022-11-27T17:02:16.987Z,48.51
2022-11-27T17:07:18.849Z,49.36
2022-11-27T17:12:20.824Z,49.37
2022-11-27T17:17:22.672Z,49.34
2022-11-27T17:22:26.809Z,49.43
2022-11-27T17:27:28.692Z,49.20
2022-11-27T17:32:31.124Z,49.65
2022-11-27T17:37:33.025Z,49.42
2022-11-27T17:42:34.872Z,49.63
2022-11-27T17:47:36.677Z,49.82
2022-11-27T17:52:40.033Z,50.19
2022-11-27T17:57:42.035Z,50.51
2022-11-27T18:02:43.969Z,50.48
2022-11-27T18:07:45.961Z,50.54
2022-11-27T18:12:47.866Z,50.51
2022-11-27T18:17:49.747Z,50.37
2022-11-27T18:22:51.637Z,51.00
2022-11-27T18:27:53.617Z,50.98
2022-11-27T18:32:55.438Z,51.19
2022-11-27T18:37:57.253Z,51.35
2022-11-27T18:42:59.074Z,51.46
2022-11-27T18:48:00.945Z,51.96
2022-11-27T18:53:03.326Z,51.88
2022-11-27T18:58:05.196Z,52.06
2022-11-27T19:03:07.253Z,51.84
2022-11-27T19:08:10.364Z,52.09
2022-11-27T19:13:12.250Z,52.08
2022-11-27T19:18:14.510Z,52.17
2022-11-27T19:23:16.502Z,52.29
2022-11-27T19:28:18.515Z,52.57
2022-11-27T19:33:20.412Z,52.50
2022-11-27T19:38:22.236Z,52.64
2022-11-27T19:43:24.758Z,52.63
2022-11-27T19:48:27.481Z,52.88
2022-11-27T19:53:29.502Z,52.73
2022-11-27T19:58:32.428Z,52.66
2022-11-27T20:03:34.361Z,52.45
2022-11-27T20:08:36.362Z,52.73
2022-11-27T20:13:38.768Z,52.89
2022-11-27T20:18:41.270Z,53.29
2022-11-27T20:23:44.364Z,53.36
2022-11-27T20:28:46.364Z,53.69
2022-11-27T20:33:48.683Z,53.68
2022-11-27T20:38:52.232Z,53.94
2022-11-27T20:43:56.639Z,53.77
2022-11-27T20:48:59.562Z,53.90
2022-11-27T20:54:03.890Z,53.93
2022-11-27T20:59:07.995Z,54.14
2022-11-27T21:04:26.337Z,54.36
2022-11-27T21:09:29.421Z,54.00
2022-11-27T21:14:31.424Z,54.34
2022-11-27T21:19:33.348Z,54.75
2022-11-27T21:24:35.257Z,54.78
2022-11-27T21:29:37.661Z,54.37
2022-11-27T21:34:40.736Z,54.34
2022-11-27T21:39:44.712Z,54.85
2022-11-27T21:44:49.882Z,55.12
2022-11-27T21:49:52.028Z,54.95
2022-11-27T21:54:53.954Z,54.69
2022-11-27T21:59:55.831Z,55.28
2022-11-27T22:04:57.626Z,55.29
2022-11-27T22:09:59.451Z,55.22
2022-11-27T22:15:01.278Z,55.03
2022-11-27T22:20:03.351Z,55.28
2022-11-27T22:25:06.266Z,55.37
2022-11-27T22:30:08.835Z,55.23
2022-11-27T22:35:10.791Z,54.95
2022-11-27T22:40:13.363Z,55.06
2022-11-27T22:45:15.367Z,55.01
2022-11-27T22:50:17.343Z,54.96
2022-11-27T22:55:19.146Z,55.40
2022-11-27T23:00:21.689Z,54.95
2022-11-27T23:05:23.490Z,55.05
2022-11-27T23:10:25.852Z,55.20
2022-11-27T23:15:27.698Z,55.27
2022-11-27T23:20:29.494Z,55.34
2022-11-27T23:25:31.311Z,55.45
2022-11-27T23:30:35.229Z,55.25
2022-11-27T23:35:37.042Z,54.98
2022-11-27T23:40:39.518Z,55.00
2022-11-27T23:45:41.405Z,55.45
2022-11-27T23:50:43.302Z,54.87
2022-11-27T23:55:45.127Z,55.25
